Time;durP1;ratioP1;P1;durP2;ratioP2;P2;SDS_P1;SDS_P2;PMS_P1;PMS_P2;Temp;Humidity;BMP_temperature;BMP_pressure;BME280_temperature;BME280_humidity;BME280_pressure;Samples;Min_cycle;Max_cycle;Signal;HPM_P1;HPM_P2
2022/08/24 00:00:57;;;;;;;2.03;1.02;;;24.30;91.80;;;;;;4111153;28;20031;-66
2022/08/24 00:02:58;;;;;;;3.45;1.10;;;24.30;92.10;;;;;;4111097;28;20092;-66
2022/08/24 00:05:00;;;;;;;2.17;0.95;;;24.30;91.40;;;;;;4112642;28;20027;-66
2022/08/24 00:07:01;;;;;;;1.33;1.08;;;24.30;91.50;;;;;;4111346;28;20030;-66
2022/08/24 00:09:02;;;;;;;1.58;1.08;;;24.30;91.80;;;;;;4109647;28;20035;-65
2022/08/24 00:11:03;;;;;;;2.72;1.30;;;24.20;92.00;;;;;;4085810;29;20051;-66
2022/08/24 00:13:04;;;;;;;2.22;1.10;;;24.20;92.30;;;;;;4112155;28;20512;-65
2022/08/24 00:15:09;;;;;;;1.58;1.33;;;24.20;92.10;;;;;;4111746;28;20070;-66
2022/08/24 00:17:10;;;;;;;1.73;0.95;;;24.20;93.20;;;;;;4111815;28;20034;-66
2022/08/24 00:19:11;;;;;;;1.38;0.90;;;24.20;91.90;;;;;;4110705;28;20069;-66
2022/08/24 00:21:12;;;;;;;1.25;0.80;;;24.20;91.80;;;;;;4110907;28;20044;-66
2022/08/24 00:23:13;;;;;;;4.22;1.27;;;24.20;92.00;;;;;;4108046;28;20055;-66
2022/08/24 00:25:14;;;;;;;2.35;0.98;;;24.20;91.80;;;;;;4111643;28;20039;-66
2022/08/24 00:27:15;;;;;;;2.03;1.23;;;24.20;92.20;;;;;;4110951;28;20553;-65
2022/08/24 00:29:16;;;;;;;3.05;1.00;;;24.10;91.90;;;;;;4109863;28;20063;-66
2022/08/24 00:31:18;;;;;;;3.13;1.35;;;24.20;93.00;;;;;;4109911;28;20047;-66
2022/08/24 00:33:19;;;;;;;1.52;0.98;;;24.20;92.40;;;;;;4112183;28;20074;-66
2022/08/24 00:35:20;;;;;;;2.97;1.00;;;24.10;92.10;;;;;;4111312;28;20035;-66
2022/08/24 00:37:21;;;;;;;1.40;0.90;;;24.20;92.90;;;;;;4111906;28;20426;-66
2022/08/24 00:39:22;;;;;;;2.25;1.05;;;24.20;92.50;;;;;;4110248;28;20027;-66
2022/08/24 00:41:23;;;;;;;3.20;1.30;;;24.10;92.00;;;;;;4111455;28;20042;-66
2022/08/24 00:43:25;;;;;;;2.85;1.15;;;24.10;92.00;;;;;;4111938;28;20035;-65
2022/08/24 00:45:26;;;;;;;3.03;1.35;;;24.00;92.20;;;;;;4106400;28;20046;-66
2022/08/24 00:47:33;;;;;;;3.33;1.33;;;23.90;92.40;;;;;;4111692;28;20042;-65
2022/08/24 00:49:46;;;;;;;1.23;1.10;;;23.90;92.50;;;;;;4107909;28;20122;-67
2022/08/24 00:52:10;;;;;;;3.28;1.30;;;23.80;92.50;;;;;;4109869;28;20070;-66
2022/08/24 00:54:14;;;;;;;2.83;1.30;;;23.80;93.20;;;;;;4110960;28;20497;-65
2022/08/24 00:56:22;;;;;;;2.35;0.98;;;23.80;94.10;;;;;;4110844;28;20033;-65
2022/08/24 00:58:30;;;;;;;1.58;1.00;;;23.80;93.50;;;;;;4110746;28;20043;-66
2022/08/24 01:00:38;;;;;;;1.75;1.05;;;23.80;94.60;;;;;;4106336;28;20034;-66
2022/08/24 01:02:42;;;;;;;2.03;1.00;;;23.80;93.50;;;;;;4111016;28;20118;-64
2022/08/24 01:05:05;;;;;;;1.73;1.30;;;23.80;93.40;;;;;;4111489;28;20035;-66
2022/08/24 01:07:06;;;;;;;1.85;1.13;;;23.70;93.00;;;;;;4110577;28;20500;-66
2022/08/24 01:09:07;;;;;;;1.73;1.15;;;23.70;93.90;;;;;;4110088;28;20055;-65
2022/08/24 01:11:12;;;;;;;2.42;1.30;;;23.70;94.20;;;;;;4110632;28;20556;-66
2022/08/24 01:13:14;;;;;;;1.45;0.93;;;23.70;93.80;;;;;;4111145;28;20074;-66
2022/08/24 01:15:15;;;;;;;1.20;1.10;;;23.70;93.50;;;;;;4115784;28;20122;-66
2022/08/24 01:19:41;;;;;;;1.58;1.05;;;23.60;93.10;;;;;;4110342;28;20027;-66
2022/08/24 01:22:19;;;;;;;2.95;1.00;;;23.60;93.40;;;;;;4110996;28;20042;-66
2022/08/24 01:24:20;;;;;;;1.58;1.13;;;23.50;93.40;;;;;;4078398;29;20422;-66
2022/08/24 01:26:31;;;;;;;1.65;1.30;;;23.50;94.60;;;;;;4110627;28;20022;-65
2022/08/24 01:28:34;;;;;;;2.63;1.10;;;23.50;93.20;;;;;;4111131;28;20023;-65
2022/08/24 01:30:36;;;;;;;1.33;1.00;;;23.50;93.30;;;;;;4107042;28;20516;-65
2022/08/24 01:32:38;;;;;;;1.95;1.42;;;23.40;93.60;;;;;;4111205;28;20043;-66
2022/08/24 01:34:38;;;;;;;1.92;1.10;;;23.40;93.90;;;;;;4085009;28;20062;-66
2022/08/24 01:36:41;;;;;;;2.40;1.20;;;23.50;94.10;;;;;;4109578;28;20031;-65
2022/08/24 01:38:41;;;;;;;1.42;0.82;;;23.40;94.10;;;;;;4105276;28;20386;-66
2022/08/24 01:40:49;;;;;;;3.83;1.50;;;23.40;93.70;;;;;;4109054;28;20043;-66
2022/08/24 01:42:52;;;;;;;2.13;1.20;;;23.40;94.40;;;;;;4101452;28;20042;-66
2022/08/24 01:44:52;;;;;;;1.20;1.00;;;23.30;94.30;;;;;;4108362;28;20146;-66
2022/08/24 01:46:54;;;;;;;2.15;1.27;;;23.30;94.30;;;;;;4112728;28;20066;-66
2022/08/24 01:48:56;;;;;;;5.60;1.50;;;23.30;94.30;;;;;;4111800;28;20039;-65
2022/08/24 01:50:57;;;;;;;;;;;23.20;94.70;;;;;;4113389;28;20058;-66
2022/08/24 01:53:01;;;;;;;2.05;1.30;;;23.20;94.30;;;;;;4114094;28;19911;-66
2022/08/24 01:55:05;;;;;;;2.17;0.90;;;23.20;93.80;;;;;;4114026;28;20042;-65
2022/08/24 01:57:07;;;;;;;1.80;1.17;;;23.20;94.30;;;;;;4112517;28;20122;-66
2022/08/24 01:59:08;;;;;;;1.10;1.00;;;23.20;95.10;;;;;;4111570;28;20035;-66
2022/08/24 02:01:09;;;;;;;3.20;1.35;;;23.10;94.40;;;;;;4113256;28;20034;-65
2022/08/24 02:03:10;;;;;;;5.10;1.77;;;23.10;94.10;;;;;;4113987;28;20518;-66
2022/08/24 02:05:14;;;;;;;2.58;1.60;;;23.10;94.70;;;;;;4113068;28;20042;-67
2022/08/24 02:07:14;;;;;;;2.55;1.20;;;23.10;94.80;;;;;;4113744;28;20441;-66
2022/08/24 02:09:15;;;;;;;2.72;1.27;;;23.10;94.80;;;;;;4110342;28;20057;-66
2022/08/24 02:11:16;;;;;;;7.70;1.40;;;23.00;94.80;;;;;;4096591;28;20023;-66
2022/08/24 02:13:16;;;;;;;1.88;1.30;;;23.00;94.90;;;;;;4113392;28;20041;-66
2022/08/24 02:15:17;;;;;;;2.35;1.20;;;23.00;95.50;;;;;;4112951;28;20130;-69
2022/08/24 02:17:19;;;;;;;2.65;1.65;;;22.90;96.00;;;;;;4113748;28;20425;-65
2022/08/24 02:19:19;;;;;;;1.83;1.20;;;23.00;95.30;;;;;;4111523;28;20461;-66
2022/08/24 02:21:20;;;;;;;2.08;1.52;;;22.90;95.40;;;;;;4113075;28;20026;-65
2022/08/24 02:23:21;;;;;;;2.72;1.30;;;22.90;95.40;;;;;;4112907;28;20046;-66
2022/08/24 02:25:23;;;;;;;1.92;1.45;;;22.90;95.30;;;;;;4112902;28;20034;-66
2022/08/24 02:27:23;;;;;;;2.33;1.33;;;22.90;95.80;;;;;;4112012;28;20027;-66
2022/08/24 02:29:24;;;;;;;1.83;1.40;;;22.90;96.10;;;;;;4111101;28;20034;-65
2022/08/24 02:31:24;;;;;;;2.38;1.40;;;22.90;96.10;;;;;;4112618;28;20038;-66
2022/08/24 02:33:25;;;;;;;2.33;1.30;;;22.90;96.20;;;;;;4108241;28;20423;-65
2022/08/24 02:35:28;;;;;;;3.25;1.33;;;22.90;95.80;;;;;;4101545;28;20097;-66
2022/08/24 02:37:29;;;;;;;3.78;1.50;;;22.90;96.40;;;;;;4115481;28;20479;-66
2022/08/24 02:39:29;;;;;;;2.15;1.15;;;22.90;96.20;;;;;;4112205;28;20034;-66
2022/08/24 02:41:31;;;;;;;1.98;1.60;;;22.90;95.80;;;;;;4117811;28;20076;-66
2022/08/24 02:43:31;;;;;;;3.97;1.67;;;22.90;96.50;;;;;;4117112;28;20030;-66
2022/08/24 02:45:37;;;;;;;2.83;1.63;;;22.90;95.60;;;;;;4118483;28;20062;-65
2022/08/24 02:47:38;;;;;;;3.33;1.80;;;22.90;95.90;;;;;;4117955;28;20118;-66
2022/08/24 02:49:38;;;;;;;2.50;1.70;;;22.80;96.20;;;;;;4113069;28;20093;-65
2022/08/24 02:51:43;;;;;;;2.10;1.27;;;22.80;96.20;;;;;;4119223;28;20031;-65
2022/08/24 02:53:43;;;;;;;2.88;1.42;;;22.80;96.30;;;;;;4114729;28;20101;-65
2022/08/24 02:55:44;;;;;;;2.40;1.33;;;22.80;95.50;;;;;;4116551;28;20038;-66
2022/08/24 02:57:46;;;;;;;4.50;1.50;;;22.80;95.40;;;;;;4115863;28;20054;-65
2022/08/24 02:59:47;;;;;;;3.20;1.77;;;22.80;95.30;;;;;;4110151;28;20481;-65
2022/08/24 03:01:48;;;;;;;1.98;1.55;;;22.80;96.40;;;;;;4112495;28;20035;-65
2022/08/24 03:03:49;;;;;;;1.92;1.58;;;22.80;95.80;;;;;;4111521;28;20393;-64
2022/08/24 03:05:49;;;;;;;3.50;1.60;;;22.80;96.00;;;;;;4112277;28;20046;-65
2022/08/24 03:07:50;;;;;;;2.63;1.60;;;22.70;94.90;;;;;;4112967;28;20043;-65
2022/08/24 03:09:51;;;;;;;1.52;1.27;;;22.70;95.00;;;;;;4110889;28;20535;-66
2022/08/24 03:11:52;;;;;;;2.65;1.45;;;22.60;95.60;;;;;;4111252;28;20113;-66
2022/08/24 03:13:52;;;;;;;2.90;1.55;;;22.60;95.50;;;;;;4112994;28;20142;-66
2022/08/24 03:15:54;;;;;;;2.50;2.05;;;22.60;95.50;;;;;;4111660;28;20490;-65
2022/08/24 03:17:55;;;;;;;3.95;1.90;;;22.50;95.60;;;;;;4111808;28;20501;-66
2022/08/24 03:19:56;;;;;;;2.80;1.67;;;22.50;95.70;;;;;;4093263;28;20027;-66
2022/08/24 03:21:56;;;;;;;3.97;1.90;;;22.40;95.60;;;;;;4111761;28;20097;-65
2022/08/24 03:23:57;;;;;;;3.35;2.00;;;22.30;95.80;;;;;;4111921;28;20482;-65
2022/08/24 03:25:58;;;;;;;2.85;1.92;;;22.30;96.10;;;;;;4110806;28;20387;-65
2022/08/24 03:27:58;;;;;;;3.15;2.00;;;22.30;96.60;;;;;;4111067;28;20030;-66
2022/08/24 03:30:00;;;;;;;5.05;1.90;;;22.30;97.30;;;;;;4111389;28;20039;-65
2022/08/24 03:32:00;;;;;;;3.17;1.80;;;22.30;97.20;;;;;;4111419;28;20035;-66
2022/08/24 03:34:01;;;;;;;2.08;1.58;;;22.30;96.80;;;;;;4099252;28;20113;-65
2022/08/24 03:36:02;;;;;;;2.53;1.65;;;22.30;97.40;;;;;;4103657;28;20098;-65
2022/08/24 03:38:03;;;;;;;2.55;1.80;;;22.30;97.00;;;;;;4110258;28;20027;-65
2022/08/24 03:40:05;;;;;;;2.72;1.45;;;22.30;96.80;;;;;;4109664;28;20113;-66
2022/08/24 03:42:05;;;;;;;4.53;1.90;;;22.30;96.90;;;;;;4094645;28;20126;-65
2022/08/24 03:44:06;;;;;;;2.13;1.55;;;22.30;96.80;;;;;;4112060;28;20035;-66
2022/08/24 03:46:10;;;;;;;2.15;1.60;;;22.30;97.30;;;;;;4111506;28;20501;-65
2022/08/24 03:48:11;;;;;;;1.60;1.42;;;22.30;96.90;;;;;;4112065;28;20446;-65
2022/08/24 03:50:12;;;;;;;2.83;1.80;;;22.30;97.20;;;;;;4108937;28;20061;-66
2022/08/24 03:52:12;;;;;;;1.95;1.50;;;22.30;97.10;;;;;;4104256;28;20498;-66
2022/08/24 03:54:14;;;;;;;2.83;1.77;;;22.30;97.00;;;;;;4112272;28;20065;-67
2022/08/24 03:56:16;;;;;;;3.33;1.98;;;22.30;97.20;;;;;;4111320;28;20040;-66
2022/08/24 03:58:17;;;;;;;2.10;1.60;;;22.30;97.20;;;;;;4110980;28;20027;-65
2022/08/24 04:00:17;;;;;;;3.10;1.50;;;22.30;97.60;;;;;;4108748;28;20027;-65
2022/08/24 04:02:18;;;;;;;3.15;1.70;;;22.30;98.50;;;;;;4097471;28;20046;-66
2022/08/24 04:04:18;;;;;;;4.00;1.40;;;22.30;97.60;;;;;;4100482;28;20394;-66
2022/08/24 04:06:20;;;;;;;2.33;1.75;;;22.30;97.80;;;;;;4110897;28;20027;-66
2022/08/24 04:08:21;;;;;;;3.00;2.17;;;22.30;98.00;;;;;;4111430;28;20034;-64
2022/08/24 04:10:22;;;;;;;2.20;1.50;;;22.30;97.70;;;;;;4106598;28;26189;-66
2022/08/24 04:12:22;;;;;;;6.35;1.98;;;22.30;97.90;;;;;;4110558;28;20058;-66
2022/08/24 04:14:24;;;;;;;4.78;1.73;;;22.30;96.80;;;;;;4108714;28;20050;-66
2022/08/24 04:16:28;;;;;;;3.10;1.83;;;22.30;97.40;;;;;;4110567;28;20390;-66
2022/08/24 04:18:28;;;;;;;3.08;2.00;;;22.20;97.90;;;;;;4112808;28;20381;-66
2022/08/24 04:20:29;;;;;;;3.30;2.03;;;22.20;96.90;;;;;;4109294;28;20035;-66
2022/08/24 04:22:32;;;;;;;2.80;1.92;;;22.20;99.00;;;;;;4110919;28;20061;-66
2022/08/24 04:24:33;;;;;;;5.10;2.47;;;22.10;98.80;;;;;;4111976;28;20082;-66
2022/08/24 04:26:35;;;;;;;3.88;2.30;;;22.10;98.70;;;;;;4110104;28;20039;-66
2022/08/24 04:28:35;;;;;;;3.47;2.30;;;22.10;98.60;;;;;;4110438;28;20023;-66
2022/08/24 04:30:40;;;;;;;3.15;2.08;;;22.00;98.40;;;;;;4108794;28;20461;-66
2022/08/24 04:32:41;;;;;;;3.90;2.22;;;22.00;98.30;;;;;;4105717;28;20031;-66
2022/08/24 04:34:42;;;;;;;2.72;1.88;;;22.00;98.80;;;;;;4111425;28;20077;-66
2022/08/24 04:36:44;;;;;;;4.75;2.17;;;21.90;98.60;;;;;;4110829;28;20023;-66
2022/08/24 04:38:45;;;;;;;3.38;1.85;;;21.90;98.50;;;;;;4108763;28;20127;-66
2022/08/24 04:40:47;;;;;;;3.60;2.30;;;21.90;98.40;;;;;;4108167;28;20050;-66
2022/08/24 04:42:48;;;;;;;3.70;2.20;;;21.80;98.50;;;;;;4110879;28;20400;-66
2022/08/24 04:44:49;;;;;;;4.53;2.30;;;21.80;99.10;;;;;;4093969;29;20104;-66
2022/08/24 04:46:50;;;;;;;4.07;2.58;;;21.80;98.50;;;;;;4093112;28;20390;-66
2022/08/24 04:48:50;;;;;;;3.47;2.38;;;21.80;98.20;;;;;;4109805;28;20038;-66
2022/08/24 04:50:52;;;;;;;2.42;2.10;;;21.70;98.70;;;;;;4104599;28;20046;-66
2022/08/24 04:52:53;;;;;;;2.73;2.13;;;21.70;98.90;;;;;;4111320;28;20368;-66
2022/08/24 04:54:53;;;;;;;3.17;2.20;;;21.70;99.10;;;;;;4108812;28;20041;-66
2022/08/24 04:56:54;;;;;;;6.18;2.72;;;21.70;99.20;;;;;;4110136;28;20035;-66
2022/08/24 04:58:56;;;;;;;4.70;2.40;;;21.60;99.50;;;;;;4109276;28;20050;-66
2022/08/24 05:00:57;;;;;;;3.65;2.33;;;21.60;99.50;;;;;;4082767;28;21131;-66
2022/08/24 05:02:57;;;;;;;4.95;2.70;;;21.60;99.40;;;;;;4101149;28;20085;-66
2022/08/24 05:04:58;;;;;;;2.63;2.20;;;21.60;99.90;;;;;;4104964;28;20117;-69
2022/08/24 05:06:59;;;;;;;3.97;2.60;;;21.60;99.90;;;;;;4106487;28;20429;-68
2022/08/24 05:09:01;;;;;;;6.00;2.80;;;21.60;99.80;;;;;;4109338;28;20042;-69
2022/08/24 05:11:06;;;;;;;2.70;2.45;;;21.60;99.60;;;;;;4109392;28;20042;-69
2022/08/24 05:13:07;;;;;;;5.00;2.45;;;21.60;99.90;;;;;;4109959;28;20037;-67
2022/08/24 05:15:08;;;;;;;3.17;2.33;;;21.60;99.90;;;;;;4110668;28;20042;-70
2022/08/24 05:17:09;;;;;;;4.55;2.60;;;21.70;99.90;;;;;;4114066;28;20036;-68
2022/08/24 05:19:10;;;;;;;4.53;3.08;;;21.70;99.90;;;;;;4112217;28;20545;-68
2022/08/24 05:21:14;;;;;;;4.22;2.67;;;21.70;99.90;;;;;;4115706;28;20026;-68
2022/08/24 05:23:15;;;;;;;2.85;2.20;;;21.70;99.90;;;;;;4116156;28;20058;-68
2022/08/24 05:25:16;;;;;;;3.67;2.60;;;21.80;99.90;;;;;;4119053;28;20043;-69
2022/08/24 05:27:17;;;;;;;3.75;2.42;;;21.70;99.90;;;;;;4115034;28;20030;-68
2022/08/24 05:29:18;;;;;;;3.42;2.55;;;21.80;99.90;;;;;;4112813;28;20046;-68
2022/08/24 05:31:21;;;;;;;4.55;3.15;;;21.80;99.90;;;;;;4113784;28;20068;-68
2022/08/24 05:33:22;;;;;;;4.28;2.42;;;21.80;99.90;;;;;;4113947;28;20039;-67
2022/08/24 05:35:22;;;;;;;3.63;2.60;;;21.80;99.90;;;;;;4114364;28;20043;-68
2022/08/24 05:37:23;;;;;;;4.07;2.50;;;21.80;99.90;;;;;;4116347;28;20043;-70
2022/08/24 05:39:24;;;;;;;5.65;2.97;;;21.80;99.90;;;;;;4114267;28;20438;-70
2022/08/24 05:41:25;;;;;;;5.13;2.72;;;21.80;99.90;;;;;;4114893;28;20118;-70
2022/08/24 05:43:25;;;;;;;3.92;2.60;;;21.80;99.90;;;;;;4114213;28;20035;-70
2022/08/24 05:45:26;;;;;;;3.35;2.63;;;21.80;99.90;;;;;;4114792;28;20109;-70
2022/08/24 05:47:27;;;;;;;3.42;2.50;;;21.80;99.90;;;;;;4112342;28;20043;-70
2022/08/24 05:49:28;;;;;;;5.45;2.72;;;21.90;99.90;;;;;;4112417;28;20125;-71
2022/08/24 05:51:29;;;;;;;6.25;2.95;;;21.90;99.90;;;;;;4113757;28;20050;-72
2022/08/24 05:53:30;;;;;;;4.68;3.35;;;21.90;99.90;;;;;;4112669;28;20501;-68
2022/08/24 05:55:30;;;;;;;8.70;3.10;;;22.00;99.90;;;;;;4111901;28;20034;-72
2022/08/24 05:57:34;;;;;;;4.10;3.15;;;22.00;99.90;;;;;;4115501;28;20126;-71
2022/08/24 05:59:35;;;;;;;5.60;3.50;;;22.00;99.90;;;;;;4114420;28;20026;-70
2022/08/24 06:01:37;;;;;;;5.50;3.20;;;22.00;99.90;;;;;;4114806;28;20029;-70
2022/08/24 06:03:38;;;;;;;4.78;3.55;;;22.10;99.90;;;;;;4098343;29;20129;-70
2022/08/24 06:05:43;;;;;;;6.60;3.80;;;22.10;99.90;;;;;;4115651;28;20031;-70
2022/08/24 06:07:43;;;;;;;5.43;3.95;;;22.20;99.90;;;;;;4114226;28;20046;-70
2022/08/24 06:09:44;;;;;;;6.43;5.05;;;22.20;99.90;;;;;;4112812;28;20043;-71
2022/08/24 06:11:46;;;;;;;9.50;5.05;;;22.20;99.90;;;;;;4114806;28;20030;-72
2022/08/24 06:13:47;;;;;;;6.60;4.57;;;22.20;99.90;;;;;;4116014;28;20442;-71
2022/08/24 06:15:48;;;;;;;6.85;4.55;;;22.30;99.90;;;;;;4115117;28;20321;-72
2022/08/24 06:17:49;;;;;;;5.93;4.78;;;22.30;99.90;;;;;;4113532;28;20498;-72
2022/08/24 06:19:49;;;;;;;7.63;5.38;;;22.30;99.90;;;;;;4113800;28;20477;-72
2022/08/24 06:21:51;;;;;;;7.65;5.10;;;22.40;99.90;;;;;;4114041;28;20051;-72
2022/08/24 06:23:52;;;;;;;7.57;4.93;;;22.40;99.90;;;;;;4115456;28;20113;-72
2022/08/24 06:28:12;;;;;;;6.68;5.18;;;22.60;99.90;;;;;;4112746;28;20052;-71
2022/08/24 06:30:13;;;;;;;6.70;4.82;;;22.70;99.90;;;;;;4110855;28;20082;-72
2022/08/24 06:32:13;;;;;;;8.25;5.13;;;22.70;99.90;;;;;;4113192;28;20034;-73
2022/08/24 06:34:16;;;;;;;6.55;5.00;;;22.80;99.90;;;;;;4111265;28;20034;-72
2022/08/24 06:36:17;;;;;;;6.57;4.72;;;22.90;99.90;;;;;;4109222;28;20035;-71
2022/08/24 06:38:17;;;;;;;7.32;4.50;;;22.90;99.90;;;;;;4113517;28;20039;-72
2022/08/24 06:40:21;;;;;;;7.22;4.85;;;23.00;99.90;;;;;;4109126;28;20073;-71
2022/08/24 06:42:25;;;;;;;7.63;4.80;;;23.10;99.90;;;;;;4113189;28;20034;-70
2022/08/24 06:44:26;;;;;;;7.03;4.07;;;23.20;99.90;;;;;;4112976;28;20699;-73
2022/08/24 06:46:27;;;;;;;5.05;4.30;;;23.40;99.90;;;;;;4109194;28;20117;-71
2022/08/24 06:48:29;;;;;;;8.95;4.63;;;23.70;99.90;;;;;;4107544;28;20553;-70
2022/08/24 06:50:29;;;;;;;6.95;4.15;;;24.00;99.90;;;;;;4109773;28;20174;-71
2022/08/24 06:52:30;;;;;;;5.22;4.18;;;24.30;99.90;;;;;;4112316;28;20469;-73
2022/08/24 06:54:31;;;;;;;6.50;3.78;;;24.70;99.90;;;;;;4111981;28;20043;-70
2022/08/24 06:56:34;;;;;;;6.70;3.90;;;25.10;98.80;;;;;;4107527;28;20066;-71
2022/08/24 06:58:36;;;;;;;5.45;3.65;;;25.50;98.50;;;;;;4112067;28;20089;-70
2022/08/24 07:00:36;;;;;;;8.05;4.30;;;25.90;97.50;;;;;;4111146;28;20074;-71
2022/08/24 07:02:37;;;;;;;5.78;4.10;;;26.30;96.30;;;;;;4113377;28;20541;-71
2022/08/24 07:04:39;;;;;;;7.53;3.47;;;26.60;95.60;;;;;;4107458;28;20122;-70
2022/08/24 07:06:40;;;;;;;4.22;2.78;;;27.00;95.10;;;;;;4107588;28;20118;-73
2022/08/24 07:08:42;;;;;;;4.57;3.00;;;27.40;94.90;;;;;;4111016;28;20121;-68
2022/08/24 07:10:42;;;;;;;7.22;3.10;;;27.70;93.70;;;;;;4107524;28;20133;-72
2022/08/24 07:12:43;;;;;;;5.53;3.13;;;28.20;94.80;;;;;;4112854;28;20516;-71
2022/08/24 07:14:44;;;;;;;13.70;4.05;;;28.50;92.60;;;;;;4111599;28;20031;-73
2022/08/24 07:16:44;;;;;;;6.65;3.80;;;28.80;92.60;;;;;;4111284;28;20375;-75
2022/08/24 07:18:45;;;;;;;5.95;2.95;;;29.00;90.10;;;;;;4092973;28;20027;-73
2022/08/24 07:20:46;;;;;;;7.55;3.28;;;29.20;88.80;;;;;;4110016;28;20518;-74
2022/08/24 07:22:47;;;;;;;5.15;3.10;;;29.40;88.20;;;;;;4112288;28;20093;-71
2022/08/24 07:24:48;;;;;;;3.80;2.38;;;29.50;85.50;;;;;;4112006;28;20504;-69
2022/08/24 07:26:48;;;;;;;8.43;3.70;;;29.70;85.80;;;;;;4110129;28;20039;-72
2022/08/24 07:28:50;;;;;;;4.38;2.30;;;29.70;83.50;;;;;;4110607;28;20057;-72
2022/08/24 07:30:51;;;;;;;;;;;29.80;83.40;;;;;;4110964;28;20073;-74
2022/08/24 07:32:53;;;;;;;4.50;2.50;;;29.80;82.80;;;;;;4111722;28;19910;-73
2022/08/24 07:34:54;;;;;;;5.78;2.50;;;29.90;82.70;;;;;;4110110;28;20031;-74
2022/08/24 07:36:54;;;;;;;5.82;2.72;;;30.00;81.70;;;;;;4112305;28;20042;-74
2022/08/24 07:38:56;;;;;;;6.60;2.97;;;30.00;80.90;;;;;;4110585;28;20312;-74
2022/08/24 07:40:59;;;;;;;3.85;2.35;;;30.00;82.00;;;;;;4109781;28;20046;-72
2022/08/24 07:43:00;;;;;;;3.75;1.98;;;30.00;81.20;;;;;;4112394;28;20473;-75
2022/08/24 07:45:00;;;;;;;5.40;2.45;;;30.10;79.00;;;;;;4111233;28;20027;-73
2022/08/24 07:47:02;;;;;;;7.25;2.40;;;30.10;80.00;;;;;;4111089;28;20050;-72
2022/08/24 07:49:02;;;;;;;5.47;2.30;;;30.10;78.40;;;;;;4108786;28;20035;-71
2022/08/24 07:51:11;;;;;;;4.38;2.30;;;30.10;78.30;;;;;;4111653;28;20426;-73
2022/08/24 07:53:11;;;;;;;5.60;2.25;;;30.10;78.10;;;;;;4111259;28;20393;-73
2022/08/24 07:55:14;;;;;;;3.72;2.15;;;30.10;77.10;;;;;;4106484;28;20058;-72
2022/08/24 07:57:15;;;;;;;4.85;2.47;;;30.20;77.60;;;;;;4111620;28;20142;-71
2022/08/24 07:59:16;;;;;;;5.20;2.30;;;30.20;77.50;;;;;;4110337;28;20082;-75
2022/08/24 08:01:18;;;;;;;3.05;2.05;;;30.20;76.50;;;;;;4111380;28;20113;-71
2022/08/24 08:03:20;;;;;;;6.78;2.28;;;30.20;76.40;;;;;;4111179;28;20047;-73
2022/08/24 08:05:22;;;;;;;5.38;2.22;;;30.20;75.90;;;;;;4095928;28;20043;-70
2022/08/24 08:07:23;;;;;;;4.22;2.08;;;30.30;76.90;;;;;;4111433;28;20027;-70
2022/08/24 08:09:24;;;;;;;4.32;2.20;;;30.30;76.90;;;;;;4110945;28;20151;-73
2022/08/24 08:11:25;;;;;;;4.15;2.10;;;30.40;77.50;;;;;;4111467;28;20038;-71
2022/08/24 08:13:26;;;;;;;3.95;2.30;;;30.40;76.00;;;;;;4111915;28;20146;-73
2022/08/24 08:15:26;;;;;;;5.50;2.20;;;30.50;76.70;;;;;;4109775;28;20038;-73
2022/08/24 08:17:27;;;;;;;4.57;2.05;;;30.50;76.20;;;;;;4111629;28;20026;-72
2022/08/24 08:19:28;;;;;;;3.00;2.13;;;30.60;77.60;;;;;;4108094;28;20047;-72
2022/08/24 08:26:12;;;;;;;2.55;2.05;;;30.70;76.70;;;;;;4111105;28;20077;-74
2022/08/24 08:28:12;;;;;;;7.93;2.70;;;30.70;75.60;;;;;;4109994;28;20038;-72
2022/08/24 08:30:14;;;;;;;5.13;2.22;;;30.80;74.80;;;;;;4107718;28;20051;-73
2022/08/24 08:32:16;;;;;;;5.93;2.05;;;30.90;74.40;;;;;;4111584;28;20093;-73
2022/08/24 08:34:16;;;;;;;3.35;1.90;;;30.90;75.80;;;;;;4111368;28;20117;-72
2022/08/24 08:36:20;;;;;;;4.35;2.10;;;30.90;74.40;;;;;;4111141;28;20378;-72
2022/08/24 08:38:20;;;;;;;3.53;2.00;;;31.00;73.50;;;;;;4111142;28;20494;-71
2022/08/24 08:40:39;;;;;;;4.25;1.73;;;31.10;73.90;;;;;;4109707;28;20027;-71
2022/08/24 08:43:13;;;;;;;6.47;2.63;;;31.10;72.90;;;;;;4111455;28;20055;-71
2022/08/24 08:45:30;;;;;;;4.22;1.70;;;31.20;71.40;;;;;;4068424;28;20057;-72
2022/08/24 08:47:52;;;;;;;3.03;1.80;;;31.20;71.30;;;;;;4111011;28;20039;-71
2022/08/24 08:50:17;;;;;;;6.55;2.30;;;31.30;72.20;;;;;;4109977;28;20038;-73
2022/08/24 08:52:56;;;;;;;3.55;2.05;;;31.40;72.00;;;;;;4107846;28;20034;-74
2022/08/24 08:55:15;;;;;;;3.70;2.17;;;31.40;72.40;;;;;;4110612;28;20042;-72
2022/08/24 08:57:46;;;;;;;3.60;2.10;;;31.40;71.00;;;;;;4110285;28;20502;-73
2022/08/24 09:00:10;;;;;;;2.70;1.65;;;31.50;72.20;;;;;;4107164;28;20030;-71
2022/08/24 09:02:25;;;;;;;3.38;1.67;;;31.50;70.30;;;;;;4108147;28;20039;-72
2022/08/24 09:04:49;;;;;;;2.65;1.50;;;31.50;69.60;;;;;;4109671;28;20438;-72
2022/08/24 09:07:16;;;;;;;2.97;1.80;;;31.50;70.10;;;;;;4107562;28;20372;-71
2022/08/24 09:09:31;;;;;;;2.47;1.42;;;31.50;69.70;;;;;;4109741;28;20132;-73
2022/08/24 09:11:48;;;;;;;5.05;1.80;;;31.50;70.40;;;;;;4108882;28;20031;-73
2022/08/24 09:14:22;;;;;;;3.88;1.98;;;31.60;70.10;;;;;;4107681;28;20133;-75
2022/08/24 09:16:44;;;;;;;4.97;1.65;;;31.50;69.40;;;;;;4107465;28;20058;-72
2022/08/24 09:19:02;;;;;;;2.63;1.77;;;31.50;69.80;;;;;;4100638;28;20106;-74
2022/08/24 09:21:05;;;;;;;6.65;2.00;;;31.50;70.10;;;;;;4109827;28;20035;-73
2022/08/24 09:23:21;;;;;;;5.82;2.22;;;31.60;70.10;;;;;;4111248;28;20106;-76
2022/08/24 09:25:38;;;;;;;5.15;2.13;;;31.60;69.70;;;;;;4109345;28;20046;-71
2022/08/24 09:27:59;;;;;;;4.93;2.10;;;31.60;70.50;;;;;;4110069;28;20402;-72
2022/08/24 09:30:13;;;;;;;4.35;2.45;;;31.70;70.00;;;;;;4106210;28;20145;-75
2022/08/24 09:32:23;;;;;;;3.15;1.88;;;31.70;69.50;;;;;;4110429;28;20105;-74
2022/08/24 09:34:32;;;;;;;6.45;2.30;;;31.70;69.70;;;;;;4111429;28;20502;-74
2022/08/24 09:37:08;;;;;;;5.22;2.30;;;31.70;69.80;;;;;;4109917;28;20031;-74
2022/08/24 09:39:32;;;;;;;5.57;2.53;;;31.80;70.10;;;;;;4106874;28;20063;-72
2022/08/24 09:41:52;;;;;;;4.20;2.03;;;31.80;70.10;;;;;;4108978;28;20050;-73
2022/08/24 09:44:22;;;;;;;4.43;1.90;;;32.00;75.70;;;;;;4093983;29;20031;-72
2022/08/24 09:46:44;;;;;;;3.03;1.80;;;32.00;70.30;;;;;;4102710;28;20038;-74
2022/08/24 09:49:07;;;;;;;5.60;2.17;;;32.00;69.10;;;;;;4106773;28;20043;-70
2022/08/24 09:51:45;;;;;;;5.88;2.30;;;32.10;69.60;;;;;;4108907;28;20042;-72
2022/08/24 09:54:13;;;;;;;4.07;2.20;;;32.00;67.80;;;;;;4105857;28;20503;-73
2022/08/24 09:56:27;;;;;;;4.00;1.60;;;32.00;67.50;;;;;;4109190;28;20058;-74
2022/08/24 09:58:56;;;;;;;4.93;2.42;;;32.00;68.30;;;;;;4108074;28;20088;-73
2022/08/24 10:01:17;;;;;;;2.25;1.45;;;32.00;66.40;;;;;;4108804;28;20035;-75
2022/08/24 10:03:56;;;;;;;3.13;1.80;;;32.00;67.30;;;;;;4112113;28;20122;-74
2022/08/24 10:06:10;;;;;;;3.95;1.60;;;31.90;67.50;;;;;;4108908;28;20055;-74
2022/08/24 10:08:36;;;;;;;3.10;1.88;;;31.80;66.50;;;;;;4108900;28;20072;-73
2022/08/24 10:10:59;;;;;;;2.95;1.73;;;31.80;66.80;;;;;;4111448;28;20102;-75
2022/08/24 10:13:31;;;;;;;5.75;1.77;;;31.70;67.00;;;;;;4112880;28;20055;-71
2022/08/24 10:15:57;;;;;;;5.10;2.10;;;31.80;66.60;;;;;;4112537;28;20118;-74
2022/08/24 10:18:19;;;;;;;5.30;1.90;;;31.60;66.30;;;;;;4112438;28;20114;-74
2022/08/24 10:21:11;;;;;;;3.40;2.13;;;31.60;67.90;;;;;;4111408;28;20035;-73
2022/08/24 10:23:30;;;;;;;4.60;2.33;;;31.70;67.00;;;;;;4076670;28;20039;-70
2022/08/24 10:25:51;;;;;;;5.32;2.40;;;31.80;67.10;;;;;;4109549;28;20047;-69
2022/08/24 10:28:26;;;;;;;3.05;1.80;;;31.80;67.00;;;;;;4113418;28;20046;-71
2022/08/24 10:30:58;;;;;;;7.45;2.03;;;31.90;66.50;;;;;;4114859;28;20046;-72
2022/08/24 10:33:07;;;;;;;3.40;1.95;;;31.90;66.90;;;;;;4116184;28;20037;-72
2022/08/24 10:35:37;;;;;;;2.70;1.60;;;32.00;66.60;;;;;;4120429;28;20041;-73
2022/08/24 10:37:44;;;;;;;2.45;1.30;;;32.10;66.50;;;;;;4120612;28;20046;-71
2022/08/24 10:39:48;;;;;;;2.75;1.25;;;32.00;64.00;;;;;;4117667;28;20055;-73
2022/08/24 10:42:00;;;;;;;3.20;1.45;;;32.10;68.10;;;;;;4109893;28;20054;-74
2022/08/24 10:44:04;;;;;;;2.05;1.25;;;32.20;68.40;;;;;;4114057;28;20109;-69
2022/08/24 10:46:17;;;;;;;4.97;1.20;;;32.30;65.00;;;;;;4108753;28;20450;-72
2022/08/24 10:48:29;;;;;;;1.58;1.08;;;32.30;65.30;;;;;;4112265;28;20023;-71
2022/08/24 10:50:49;;;;;;;2.75;1.48;;;32.30;65.30;;;;;;4111315;28;20047;-74
2022/08/24 10:53:27;;;;;;;4.25;1.25;;;32.30;64.90;;;;;;4113380;28;20043;-74
2022/08/24 10:55:31;;;;;;;4.20;1.10;;;32.20;63.20;;;;;;4113548;28;21013;-70
2022/08/24 10:57:38;;;;;;;1.67;1.10;;;32.20;65.20;;;;;;4113582;28;20035;-72
2022/08/24 10:59:57;;;;;;;2.72;1.50;;;32.20;65.10;;;;;;4118737;28;20031;-72
2022/08/24 11:02:03;;;;;;;1.58;1.10;;;32.20;63.90;;;;;;4115493;28;20069;-72
2022/08/24 11:04:11;;;;;;;2.28;1.00;;;32.20;65.40;;;;;;4096623;28;20035;-75